createdAt,value
2022-11-12T00:01:56.888Z,18.05
2022-11-12T00:04:42.335Z,18.11
2022-11-12T00:07:27.478Z,18.12
2022-11-12T00:10:12.780Z,18.08
2022-11-12T00:12:58.428Z,18.02
2022-11-12T00:15:43.564Z,17.96
2022-11-12T00:18:28.895Z,17.95
2022-11-12T00:21:14.569Z,17.93
2022-11-12T00:23:59.841Z,17.89
2022-11-12T00:26:44.896Z,17.93
2022-11-12T00:29:30.161Z,17.92
2022-11-12T00:32:15.825Z,17.93
2022-11-12T00:35:02.729Z,17.90
2022-11-12T00:37:47.941Z,17.87
2022-11-12T00:40:33.192Z,17.87
2022-11-12T00:43:18.655Z,17.84
2022-11-12T00:46:03.749Z,17.83
2022-11-12T00:48:48.736Z,17.83
2022-11-12T00:51:35.426Z,17.81
2022-11-12T00:54:20.762Z,17.77
2022-11-12T00:57:06.102Z,17.73
2022-11-12T00:59:51.397Z,17.73
2022-11-12T01:02:42.444Z,17.67
2022-11-12T01:05:28.500Z,17.63
2022-11-12T01:08:14.011Z,17.62
2022-11-12T01:11:26.851Z,17.71
2022-11-12T01:14:12.095Z,17.66
2022-11-12T01:16:57.189Z,17.66
2022-11-12T01:19:42.828Z,17.64
2022-11-12T01:22:28.403Z,17.60
2022-11-12T01:25:14.400Z,17.61
2022-11-12T01:27:59.775Z,17.58
2022-11-12T01:30:45.029Z,17.52
2022-11-12T01:33:30.414Z,17.49
2022-11-12T01:36:18.113Z,17.50
2022-11-12T01:39:04.761Z,17.45
2022-11-12T01:41:50.173Z,17.43
2022-11-12T01:44:39.506Z,17.41
2022-11-12T01:47:30.987Z,17.39
2022-11-12T01:50:31.705Z,17.38
2022-11-12T01:53:17.403Z,17.25
2022-11-12T01:56:05.518Z,17.22
2022-11-12T01:58:59.777Z,17.25
2022-11-12T02:01:45.077Z,17.22
2022-11-12T02:04:32.511Z,17.21
2022-11-12T02:07:18.768Z,17.11
2022-11-12T02:10:05.960Z,17.15
2022-11-12T02:13:12.029Z,17.10
2022-11-12T02:15:58.439Z,17.06
2022-11-12T02:18:44.160Z,17.06
2022-11-12T02:21:30.281Z,16.94
2022-11-12T02:24:15.498Z,16.99
2022-11-12T02:27:01.074Z,17.04
2022-11-12T02:29:46.671Z,17.03
2022-11-12T02:32:32.990Z,16.97
2022-11-12T02:35:18.758Z,16.96
2022-11-12T02:38:04.846Z,16.95
2022-11-12T02:43:58.962Z,16.85
2022-11-12T02:46:44.334Z,16.84
2022-11-12T02:49:29.784Z,16.84
2022-11-12T02:52:15.038Z,16.86
2022-11-12T02:55:01.371Z,16.91
2022-11-12T02:57:46.703Z,16.86
2022-11-12T03:00:32.118Z,16.85
2022-11-12T03:03:20.533Z,16.86
2022-11-12T03:06:05.977Z,16.82
2022-11-12T03:08:51.311Z,16.81
2022-11-12T03:11:36.723Z,16.86
2022-11-12T03:14:22.006Z,16.82
2022-11-12T03:17:10.180Z,16.79
2022-11-12T03:19:55.282Z,16.75
2022-11-12T03:22:40.757Z,16.76
2022-11-12T03:25:26.549Z,16.72
2022-11-12T03:28:14.674Z,16.76
2022-11-12T03:31:00.887Z,16.72
2022-11-12T03:33:46.695Z,16.71
2022-11-12T03:36:32.267Z,16.66
2022-11-12T03:39:17.337Z,16.56
2022-11-12T03:42:03.683Z,16.59
2022-11-12T03:44:49.004Z,16.50
2022-11-12T03:47:35.988Z,16.54
2022-11-12T03:50:25.688Z,16.50
2022-11-12T03:53:11.383Z,16.54
2022-11-12T03:55:56.544Z,16.49
2022-11-12T03:58:44.163Z,16.49
2022-11-12T04:01:36.019Z,16.45
2022-11-12T04:05:17.486Z,16.40
2022-11-12T04:08:37.250Z,16.35
2022-11-12T04:11:27.727Z,16.35
2022-11-12T04:14:20.289Z,16.35
2022-11-12T04:17:34.637Z,16.31
2022-11-12T04:23:56.759Z,16.27
2022-11-12T04:26:49.837Z,16.22
2022-11-12T04:30:04.709Z,16.24
2022-11-12T04:32:59.119Z,16.13
2022-11-12T04:35:49.207Z,16.16
2022-11-12T04:38:55.482Z,16.17
2022-11-12T04:42:10.107Z,16.18
2022-11-12T04:45:16.710Z,16.14
2022-11-12T04:48:09.081Z,16.12
2022-11-12T04:51:01.705Z,16.10
2022-11-12T04:53:52.992Z,16.05
2022-11-12T04:56:41.274Z,16.04
2022-11-12T04:59:28.422Z,16.01
2022-11-12T05:02:16.265Z,15.87
2022-11-12T05:05:01.159Z,15.90
2022-11-12T05:07:46.615Z,15.91
2022-11-12T05:10:32.481Z,15.75
2022-11-12T05:13:17.718Z,15.75
2022-11-12T05:16:03.099Z,15.76
2022-11-12T05:18:51.448Z,15.79
2022-11-12T05:21:55.618Z,15.79
2022-11-12T05:24:43.413Z,15.82
2022-11-12T05:27:29.769Z,15.77
2022-11-12T05:30:16.009Z,15.78
2022-11-12T05:33:01.310Z,15.74
2022-11-12T05:35:46.839Z,15.69
2022-11-12T05:38:32.101Z,15.68
2022-11-12T05:41:20.370Z,15.69
2022-11-12T05:44:05.975Z,15.41
2022-11-12T05:46:51.569Z,15.54
2022-11-12T05:49:37.025Z,15.49
2022-11-12T05:52:24.661Z,15.58
2022-11-12T05:55:10.360Z,15.54
2022-11-12T05:58:01.584Z,15.62
2022-11-12T06:00:53.780Z,15.62
2022-11-12T06:03:46.503Z,15.63
2022-11-12T06:06:39.967Z,15.55
2022-11-12T06:09:30.826Z,15.59
2022-11-12T06:12:21.838Z,15.22
2022-11-12T06:15:15.932Z,15.35
2022-11-12T06:18:08.446Z,15.37
2022-11-12T06:21:36.791Z,15.46
2022-11-12T06:24:35.018Z,15.50
2022-11-12T06:27:31.871Z,15.46
2022-11-12T06:30:25.841Z,15.53
2022-11-12T06:33:15.431Z,15.53
2022-11-12T06:36:32.182Z,15.54
2022-11-12T06:39:50.543Z,15.53
2022-11-12T06:42:42.310Z,15.51
2022-11-12T06:45:34.021Z,15.09
2022-11-12T06:48:25.859Z,15.31
2022-11-12T06:51:20.384Z,15.48
2022-11-12T06:54:10.239Z,15.64
2022-11-12T06:57:01.761Z,15.74
2022-11-12T06:59:46.955Z,15.50
2022-11-12T07:02:32.350Z,15.75
2022-11-12T07:05:17.974Z,15.87
2022-11-12T07:08:04.138Z,15.00
2022-11-12T07:10:49.375Z,15.19
2022-11-12T07:13:35.758Z,15.74
2022-11-12T07:16:22.445Z,16.16
2022-11-12T07:19:07.468Z,15.98
2022-11-12T07:21:52.761Z,16.28
2022-11-12T07:24:38.468Z,16.60
2022-11-12T07:27:23.704Z,16.81
2022-11-12T07:30:10.054Z,16.91
2022-11-12T07:32:57.872Z,17.23
2022-11-12T07:35:42.914Z,17.63
2022-11-12T07:38:29.997Z,18.22
2022-11-12T07:41:19.708Z,19.70
2022-11-12T07:44:05.302Z,21.25
2022-11-12T07:46:50.594Z,22.19
2022-11-12T07:49:36.011Z,22.53
2022-11-12T07:52:21.679Z,22.56
2022-11-12T07:55:07.139Z,23.35
2022-11-12T07:58:02.587Z,24.10
2022-11-12T08:00:54.123Z,24.32
2022-11-12T08:03:48.920Z,25.39
2022-11-12T08:06:38.363Z,26.49
2022-11-12T08:09:30.134Z,27.35
2022-11-12T08:12:22.841Z,28.42
2022-11-12T08:15:16.626Z,28.95
2022-11-12T08:18:08.441Z,29.91
2022-11-12T08:21:10.128Z,30.00
2022-11-12T08:24:04.956Z,29.32
2022-11-12T08:26:57.077Z,29.47
2022-11-12T08:29:49.176Z,29.63
2022-11-12T08:32:40.380Z,29.94
2022-11-12T08:35:34.153Z,30.23
2022-11-12T08:38:27.238Z,30.72
2022-11-12T08:41:27.873Z,31.51
2022-11-12T08:47:24.320Z,32.69
2022-11-12T08:50:31.269Z,32.26
2022-11-12T08:53:33.572Z,31.13
2022-11-12T08:56:25.195Z,30.24
2022-11-12T08:59:19.037Z,29.58
2022-11-12T09:02:13.044Z,28.20
2022-11-12T09:05:01.686Z,27.73
2022-11-12T09:11:46.959Z,26.64
2022-11-12T09:14:41.957Z,26.27
2022-11-12T09:17:35.430Z,26.11
2022-11-12T09:20:25.283Z,26.26
2022-11-12T09:23:17.897Z,26.52
2022-11-12T09:26:09.741Z,27.04
2022-11-12T09:29:01.862Z,27.30
2022-11-12T09:31:54.512Z,27.93
2022-11-12T09:35:12.549Z,28.84
2022-11-12T09:38:01.178Z,29.58
2022-11-12T09:41:41.930Z,30.20
2022-11-12T09:44:50.172Z,30.62
2022-11-12T09:51:35.792Z,30.03
2022-11-12T09:54:35.371Z,29.67
2022-11-12T09:57:20.671Z,29.38
2022-11-12T10:00:19.837Z,29.29
2022-11-12T10:03:18.704Z,28.88
2022-11-12T10:06:19.602Z,28.50
2022-11-12T10:09:19.503Z,28.10
2022-11-12T10:12:33.095Z,27.98
2022-11-12T10:15:42.855Z,27.66
2022-11-12T10:18:49.727Z,27.31
2022-11-12T10:22:02.793Z,27.08
2022-11-12T10:24:48.722Z,26.94
2022-11-12T10:27:39.919Z,26.75
2022-11-12T10:30:25.595Z,26.69
2022-11-12T10:33:15.263Z,26.69
2022-11-12T10:36:19.033Z,26.66
2022-11-12T10:39:04.846Z,26.55
2022-11-12T10:42:02.653Z,26.36
2022-11-12T10:44:50.078Z,26.43
2022-11-12T10:47:42.743Z,26.47
2022-11-12T10:50:43.003Z,25.89
2022-11-12T10:53:39.960Z,25.85
2022-11-12T10:56:31.983Z,25.47
2022-11-12T10:59:20.701Z,25.03
2022-11-12T11:02:17.643Z,25.25
2022-11-12T11:05:31.323Z,25.01
2022-11-12T11:08:35.899Z,24.86
2022-11-12T11:11:31.850Z,24.76
2022-11-12T11:14:23.385Z,24.92
2022-11-12T11:17:17.541Z,25.02
2022-11-12T11:20:04.899Z,25.38
2022-11-12T11:23:06.786Z,25.33
2022-11-12T11:25:54.360Z,25.53
2022-11-12T11:28:51.732Z,25.71
2022-11-12T11:31:44.413Z,25.82
2022-11-12T11:34:48.660Z,25.84
2022-11-12T11:37:47.050Z,25.75
2022-11-12T11:40:38.030Z,25.71
2022-11-12T11:43:35.717Z,25.58
2022-11-12T11:46:58.518Z,25.50
2022-11-12T11:49:58.726Z,25.61
2022-11-12T11:53:00.627Z,25.68
2022-11-12T11:55:53.249Z,25.97
2022-11-12T11:58:50.722Z,26.08
2022-11-12T12:01:53.746Z,26.11
2022-11-12T12:04:44.559Z,26.26
2022-11-12T12:07:35.819Z,26.16
2022-11-12T12:11:07.535Z,25.71
2022-11-12T12:14:10.030Z,25.77
2022-11-12T12:17:19.032Z,25.64
2022-11-12T12:20:23.727Z,25.73
2022-11-12T12:23:29.790Z,25.60
2022-11-12T12:26:20.613Z,25.79
2022-11-12T12:29:31.350Z,25.83
2022-11-12T12:32:24.499Z,25.97
2022-11-12T12:35:31.145Z,25.64
2022-11-12T12:38:57.643Z,25.69
2022-11-12T12:42:18.585Z,25.83
2022-11-12T12:45:22.102Z,25.69
2022-11-12T12:48:44.837Z,25.91
2022-11-12T12:51:33.152Z,25.72
2022-11-12T12:54:36.048Z,25.88
2022-11-12T12:57:37.490Z,26.43
2022-11-12T13:00:38.644Z,26.23
2022-11-12T13:03:44.897Z,26.29
2022-11-12T13:06:53.011Z,26.27
2022-11-12T13:09:38.329Z,26.51
2022-11-12T13:13:02.323Z,26.68
2022-11-12T13:15:56.297Z,26.93
2022-11-12T13:18:42.016Z,26.68
2022-11-12T13:21:28.458Z,26.43
2022-11-12T13:24:14.537Z,26.72
2022-11-12T13:27:00.134Z,26.94
2022-11-12T13:29:47.592Z,27.01
2022-11-12T13:32:37.478Z,26.51
2022-11-12T13:35:39.484Z,26.52
2022-11-12T13:38:25.590Z,26.96
2022-11-12T13:41:16.357Z,26.58
2022-11-12T13:44:06.223Z,27.03
2022-11-12T13:46:52.926Z,27.11
2022-11-12T13:49:38.249Z,27.68
2022-11-12T13:52:24.394Z,27.80
2022-11-12T13:55:18.733Z,27.51
2022-11-12T13:58:03.718Z,27.57
2022-11-12T14:00:54.897Z,27.59
2022-11-12T14:03:49.894Z,27.77
2022-11-12T14:06:38.722Z,27.60
2022-11-12T14:09:41.736Z,27.28
2022-11-12T14:12:47.027Z,26.24
2022-11-12T14:15:48.317Z,26.44
2022-11-12T14:19:00.438Z,26.76
2022-11-12T14:22:16.594Z,26.48
2022-11-12T14:25:03.269Z,26.31
2022-11-12T14:27:50.742Z,26.11
2022-11-12T14:30:44.601Z,26.04
2022-11-12T14:33:31.930Z,25.66
2022-11-12T14:36:19.088Z,25.11
2022-11-12T14:39:04.663Z,24.52
2022-11-12T14:41:50.901Z,25.07
2022-11-12T14:44:38.016Z,25.05
2022-11-12T14:47:24.151Z,24.38
2022-11-12T14:50:25.222Z,24.40
2022-11-12T14:53:31.196Z,23.72
2022-11-12T14:56:35.836Z,23.97
2022-11-12T14:59:21.796Z,24.16
2022-11-12T15:05:23.537Z,24.82
2022-11-12T15:08:12.151Z,25.15
2022-11-12T15:11:20.302Z,25.22
2022-11-12T15:14:13.696Z,25.46
2022-11-12T15:17:00.548Z,25.51
2022-11-12T15:19:45.524Z,25.56
2022-11-12T15:22:32.449Z,25.62
2022-11-12T15:25:23.673Z,25.61
2022-11-12T15:28:23.687Z,25.52
2022-11-12T15:31:18.614Z,25.39
2022-11-12T15:34:39.458Z,25.29
2022-11-12T15:37:27.277Z,25.10
2022-11-12T15:40:19.064Z,24.95
2022-11-12T15:43:15.432Z,24.81
2022-11-12T15:46:01.534Z,24.77
2022-11-12T15:48:49.261Z,24.48
2022-11-12T15:51:38.391Z,24.30
2022-11-12T15:54:23.675Z,24.21
2022-11-12T15:57:15.346Z,24.09
2022-11-12T16:00:08.465Z,24.00
2022-11-12T16:03:11.368Z,23.87
2022-11-12T16:05:56.195Z,23.74
2022-11-12T16:08:41.413Z,23.58
2022-11-12T16:11:35.627Z,23.42
2022-11-12T16:14:24.631Z,23.38
2022-11-12T16:17:15.860Z,23.18
2022-11-12T16:20:01.219Z,23.05
2022-11-12T16:22:51.294Z,22.99
2022-11-12T16:25:38.327Z,22.85
2022-11-12T16:28:23.400Z,22.68
2022-11-12T16:31:08.595Z,22.63
2022-11-12T16:33:54.038Z,22.54
2022-11-12T16:36:40.294Z,22.46
2022-11-12T16:39:25.754Z,22.33
2022-11-12T16:42:11.351Z,22.28
2022-11-12T16:44:56.216Z,22.17
2022-11-12T16:47:53.803Z,22.08
2022-11-12T16:50:39.641Z,21.96
2022-11-12T16:53:25.584Z,21.89
2022-11-12T16:56:17.527Z,21.79
2022-11-12T16:59:02.881Z,21.69
2022-11-12T17:01:47.894Z,21.63
2022-11-12T17:04:33.577Z,21.60
2022-11-12T17:07:18.862Z,21.49
2022-11-12T17:10:04.396Z,21.33
2022-11-12T17:12:50.634Z,21.08
2022-11-12T17:15:36.009Z,21.07
2022-11-12T17:18:21.243Z,20.78
2022-11-12T17:21:18.436Z,20.52
2022-11-12T17:24:03.599Z,20.69
2022-11-12T17:26:48.634Z,20.64
2022-11-12T17:29:34.936Z,20.53
2022-11-12T17:32:20.359Z,20.49
2022-11-12T17:35:06.535Z,20.40
2022-11-12T17:37:52.045Z,20.41
2022-11-12T17:40:37.506Z,20.34
2022-11-12T17:43:23.031Z,20.35
2022-11-12T17:46:09.811Z,20.38
2022-11-12T17:48:56.072Z,20.28
2022-11-12T17:51:41.313Z,20.25
2022-11-12T17:54:26.364Z,20.23
2022-11-12T17:57:11.790Z,20.22
2022-11-12T17:59:56.754Z,20.08
2022-11-12T18:02:42.416Z,20.16
2022-11-12T18:05:27.601Z,20.16
2022-11-12T18:08:13.655Z,20.08
2022-11-12T18:10:58.821Z,20.12
2022-11-12T18:13:43.985Z,20.03
2022-11-12T18:16:29.452Z,19.85
2022-11-12T18:19:15.652Z,19.45
2022-11-12T18:22:02.158Z,19.46
2022-11-12T18:24:50.733Z,19.63
2022-11-12T18:27:36.651Z,19.73
2022-11-12T18:30:22.044Z,19.48
2022-11-12T18:33:07.368Z,19.10
2022-11-12T18:36:04.113Z,19.40
2022-11-12T18:38:52.381Z,19.25
2022-11-12T18:41:37.482Z,19.22
2022-11-12T18:44:26.141Z,19.63
2022-11-12T18:47:11.529Z,19.78
2022-11-12T18:49:56.487Z,19.91
2022-11-12T18:52:41.764Z,19.63
2022-11-12T18:55:27.731Z,19.61
2022-11-12T18:58:12.851Z,19.70
2022-11-12T19:01:05.784Z,19.82
2022-11-12T19:03:53.932Z,19.75
2022-11-12T19:06:39.226Z,19.69
2022-11-12T19:09:24.410Z,19.13
2022-11-12T19:12:09.691Z,18.81
2022-11-12T19:14:55.262Z,18.65
2022-11-12T19:17:40.952Z,18.74
2022-11-12T19:20:26.065Z,19.29
2022-11-12T19:23:11.042Z,19.65
2022-11-12T19:25:56.703Z,19.62
2022-11-12T19:28:43.482Z,19.79
2022-11-12T19:31:28.728Z,19.74
2022-11-12T19:34:14.410Z,19.38
2022-11-12T19:37:26.854Z,19.34
2022-11-12T19:40:06.081Z,19.45
2022-11-12T19:42:52.250Z,19.55
2022-11-12T19:45:37.155Z,19.22
2022-11-12T19:48:22.478Z,19.07
2022-11-12T19:51:09.829Z,19.14
2022-11-12T19:53:55.751Z,19.07
2022-11-12T19:56:40.983Z,19.33
2022-11-12T19:59:25.871Z,19.21
2022-11-12T20:02:12.198Z,18.74
2022-11-12T20:04:57.832Z,18.88
2022-11-12T20:07:43.103Z,19.06
2022-11-12T20:10:28.043Z,19.11
2022-11-12T20:13:13.321Z,18.79
2022-11-12T20:15:59.709Z,18.64
2022-11-12T20:18:49.805Z,18.67
2022-11-12T20:21:35.910Z,18.85
2022-11-12T20:24:21.541Z,18.96
2022-11-12T20:27:07.646Z,18.71
2022-11-12T20:29:52.859Z,18.93
2022-11-12T20:32:38.254Z,19.12
2022-11-12T20:35:23.694Z,19.22
2022-11-12T20:38:08.953Z,19.33
2022-11-12T20:40:59.065Z,19.25
2022-11-12T20:43:44.351Z,19.21
2022-11-12T20:46:30.422Z,19.22
2022-11-12T20:49:15.747Z,19.03
2022-11-12T20:52:01.322Z,19.05
2022-11-12T20:54:46.691Z,19.05
2022-11-12T20:57:31.850Z,18.67
2022-11-12T21:00:23.833Z,18.40
2022-11-12T21:03:09.885Z,18.30
2022-11-12T21:06:02.246Z,17.55
2022-11-12T21:08:48.613Z,17.32
2022-11-12T21:11:33.725Z,16.94
2022-11-12T21:14:19.159Z,16.67
2022-11-12T21:17:04.400Z,16.89
2022-11-12T21:19:49.654Z,17.23
2022-11-12T21:22:35.070Z,17.07
2022-11-12T21:25:20.398Z,17.26
2022-11-12T21:28:07.083Z,17.28
2022-11-12T21:30:52.625Z,18.06
2022-11-12T21:33:38.139Z,18.35
2022-11-12T21:36:23.770Z,18.84
2022-11-12T21:39:10.039Z,19.06
2022-11-12T21:41:55.166Z,19.33
2022-11-12T21:44:40.687Z,19.32
2022-11-12T21:47:26.070Z,19.64
2022-11-12T21:50:11.666Z,19.81
2022-11-12T21:52:56.898Z,19.79
2022-11-12T21:55:42.460Z,19.74
2022-11-12T21:58:29.289Z,19.86
2022-11-12T22:01:22.235Z,19.72
2022-11-12T22:04:07.999Z,19.66
2022-11-12T22:06:53.880Z,19.70
2022-11-12T22:09:39.051Z,19.57
2022-11-12T22:12:24.330Z,19.83
2022-11-12T22:15:09.881Z,19.71
2022-11-12T22:17:57.826Z,19.93
2022-11-12T22:20:42.999Z,19.77
2022-11-12T22:23:29.014Z,19.88
2022-11-12T22:26:16.975Z,19.46
2022-11-12T22:29:02.575Z,19.53
2022-11-12T22:31:47.623Z,19.48
2022-11-12T22:34:32.716Z,19.77
2022-11-12T22:37:18.509Z,19.68
2022-11-12T22:40:03.731Z,19.64
2022-11-12T22:42:49.058Z,19.73
2022-11-12T22:45:36.021Z,19.90
2022-11-12T22:48:21.797Z,19.66
2022-11-12T22:51:10.332Z,19.59
2022-11-12T22:54:00.856Z,19.55
2022-11-12T22:56:45.816Z,19.30
2022-11-12T22:59:31.423Z,19.18
2022-11-12T23:02:16.708Z,19.28
2022-11-12T23:05:02.075Z,19.17
2022-11-12T23:07:47.633Z,19.19
2022-11-12T23:10:32.750Z,19.26
2022-11-12T23:13:18.034Z,18.75
2022-11-12T23:16:07.623Z,18.41
2022-11-12T23:18:54.779Z,18.32
2022-11-12T23:21:40.462Z,18.26
2022-11-12T23:24:25.707Z,18.35
2022-11-12T23:27:11.094Z,18.56
2022-11-12T23:29:56.317Z,18.28
2022-11-12T23:32:41.515Z,18.30
2022-11-12T23:35:27.243Z,18.56
2022-11-12T23:38:12.531Z,18.29
2022-11-12T23:40:57.821Z,18.25
2022-11-12T23:43:43.636Z,18.32
2022-11-12T23:46:28.964Z,18.46
2022-11-12T23:49:14.102Z,18.46
2022-11-12T23:51:59.189Z,18.31
2022-11-12T23:54:44.440Z,18.16
2022-11-12T23:57:29.886Z,18.29
